sensor_id;sensor_type;location;lat;lon;timestamp;P1;durP1;ratioP1;P2;durP2;ratioP2
50341;SDS011;76053;42.682;23.286;2024-03-25T00:02:15;83.35;;;64.47;;
50341;SDS011;76053;42.682;23.286;2024-03-25T00:05:16;27.88;;;22.17;;
50341;SDS011;76053;42.682;23.286;2024-03-25T00:08:17;235.88;;;202.40;;
50341;SDS011;76053;42.682;23.286;2024-03-25T00:11:17;41.55;;;30.58;;
50341;SDS011;76053;42.682;23.286;2024-03-25T00:14:17;193.57;;;153.43;;
50341;SDS011;76053;42.682;23.286;2024-03-25T00:17:18;104.85;;;71.30;;
50341;SDS011;76053;42.682;23.286;2024-03-25T00:20:18;88.65;;;57.78;;
50341;SDS011;76053;42.682;23.286;2024-03-25T00:23:19;1752.00;;;972.53;;
50341;SDS011;76053;42.682;23.286;2024-03-25T00:26:19;880.63;;;658.95;;
50341;SDS011;76053;42.682;23.286;2024-03-25T00:29:19;1188.97;;;795.20;;
50341;SDS011;76053;42.682;23.286;2024-03-25T00:32:20;929.97;;;665.80;;
50341;SDS011;76053;42.682;23.286;2024-03-25T00:35:20;789.70;;;582.42;;
50341;SDS011;76053;42.682;23.286;2024-03-25T00:38:20;643.30;;;478.30;;
50341;SDS011;76053;42.682;23.286;2024-03-25T00:41:21;558.67;;;408.80;;
50341;SDS011;76053;42.682;23.286;2024-03-25T00:44:21;467.45;;;331.02;;
50341;SDS011;76053;42.682;23.286;2024-03-25T00:47:22;383.02;;;258.23;;
50341;SDS011;76053;42.682;23.286;2024-03-25T00:50:22;286.83;;;199.73;;
50341;SDS011;76053;42.682;23.286;2024-03-25T00:53:22;160.30;;;113.03;;
50341;SDS011;76053;42.682;23.286;2024-03-25T00:56:23;110.30;;;79.65;;
50341;SDS011;76053;42.682;23.286;2024-03-25T00:59:23;49.35;;;36.30;;
50341;SDS011;76053;42.682;23.286;2024-03-25T01:02:23;23.85;;;19.85;;
50341;SDS011;76053;42.682;23.286;2024-03-25T01:05:24;20.27;;;17.98;;
50341;SDS011;76053;42.682;23.286;2024-03-25T01:08:24;19.80;;;16.58;;
50341;SDS011;76053;42.682;23.286;2024-03-25T01:11:25;22.15;;;15.85;;
50341;SDS011;76053;42.682;23.286;2024-03-25T01:14:25;30.42;;;15.50;;
50341;SDS011;76053;42.682;23.286;2024-03-25T01:17:25;22.23;;;15.68;;
50341;SDS011;76053;42.682;23.286;2024-03-25T01:20:26;20.92;;;12.93;;
50341;SDS011;76053;42.682;23.286;2024-03-25T01:23:26;20.27;;;13.48;;
50341;SDS011;76053;42.682;23.286;2024-03-25T01:26:27;19.25;;;13.48;;
50341;SDS011;76053;42.682;23.286;2024-03-25T01:29:27;27.02;;;13.30;;
50341;SDS011;76053;42.682;23.286;2024-03-25T01:32:28;20.42;;;12.85;;
50341;SDS011;76053;42.682;23.286;2024-03-25T01:35:28;15.32;;;11.07;;
50341;SDS011;76053;42.682;23.286;2024-03-25T01:38:28;18.83;;;11.77;;
50341;SDS011;76053;42.682;23.286;2024-03-25T01:41:29;15.55;;;10.77;;
50341;SDS011;76053;42.682;23.286;2024-03-25T01:44:29;17.40;;;10.20;;
50341;SDS011;76053;42.682;23.286;2024-03-25T01:47:30;20.38;;;11.55;;
50341;SDS011;76053;42.682;23.286;2024-03-25T01:50:36;18.98;;;10.68;;
50341;SDS011;76053;42.682;23.286;2024-03-25T01:53:40;18.10;;;10.55;;
50341;SDS011;76053;42.682;23.286;2024-03-25T01:56:42;13.25;;;8.95;;
50341;SDS011;76053;42.682;23.286;2024-03-25T01:59:44;14.40;;;9.20;;
50341;SDS011;76053;42.682;23.286;2024-03-25T02:02:45;15.23;;;9.45;;
50341;SDS011;76053;42.682;23.286;2024-03-25T02:05:45;16.33;;;9.70;;
50341;SDS011;76053;42.682;23.286;2024-03-25T02:08:46;13.52;;;9.75;;
50341;SDS011;76053;42.682;23.286;2024-03-25T02:11:48;14.05;;;9.35;;
50341;SDS011;76053;42.682;23.286;2024-03-25T02:14:49;11.48;;;7.60;;
50341;SDS011;76053;42.682;23.286;2024-03-25T02:17:49;15.18;;;8.73;;
50341;SDS011;76053;42.682;23.286;2024-03-25T02:20:50;11.70;;;7.72;;
50341;SDS011;76053;42.682;23.286;2024-03-25T02:23:50;11.80;;;7.55;;
50341;SDS011;76053;42.682;23.286;2024-03-25T02:26:55;12.32;;;7.75;;
50341;SDS011;76053;42.682;23.286;2024-03-25T02:30:01;11.60;;;7.38;;
50341;SDS011;76053;42.682;23.286;2024-03-25T02:33:08;10.80;;;6.95;;
50341;SDS011;76053;42.682;23.286;2024-03-25T02:36:09;9.73;;;7.18;;
50341;SDS011;76053;42.682;23.286;2024-03-25T02:39:09;10.25;;;6.78;;
50341;SDS011;76053;42.682;23.286;2024-03-25T02:42:10;9.30;;;5.63;;
50341;SDS011;76053;42.682;23.286;2024-03-25T02:45:10;12.13;;;6.05;;
50341;SDS011;76053;42.682;23.286;2024-03-25T02:48:11;9.27;;;5.70;;
50341;SDS011;76053;42.682;23.286;2024-03-25T02:51:11;9.80;;;6.25;;
50341;SDS011;76053;42.682;23.286;2024-03-25T02:54:11;10.07;;;5.68;;
50341;SDS011;76053;42.682;23.286;2024-03-25T02:57:12;8.70;;;5.68;;
50341;SDS011;76053;42.682;23.286;2024-03-25T03:00:12;8.77;;;5.20;;
50341;SDS011;76053;42.682;23.286;2024-03-25T03:03:13;9.00;;;5.28;;
50341;SDS011;76053;42.682;23.286;2024-03-25T03:06:13;7.47;;;4.90;;
50341;SDS011;76053;42.682;23.286;2024-03-25T03:09:14;8.10;;;5.28;;
50341;SDS011;76053;42.682;23.286;2024-03-25T03:12:14;8.25;;;5.05;;
50341;SDS011;76053;42.682;23.286;2024-03-25T03:15:15;10.77;;;5.65;;
50341;SDS011;76053;42.682;23.286;2024-03-25T03:18:15;7.00;;;4.63;;
50341;SDS011;76053;42.682;23.286;2024-03-25T03:21:15;6.78;;;4.47;;
50341;SDS011;76053;42.682;23.286;2024-03-25T03:24:16;7.72;;;5.18;;
50341;SDS011;76053;42.682;23.286;2024-03-25T03:27:17;7.57;;;5.15;;
50341;SDS011;76053;42.682;23.286;2024-03-25T03:30:17;8.82;;;4.28;;
50341;SDS011;76053;42.682;23.286;2024-03-25T03:33:18;5.68;;;4.10;;
50341;SDS011;76053;42.682;23.286;2024-03-25T03:36:19;7.82;;;4.22;;
50341;SDS011;76053;42.682;23.286;2024-03-25T03:39:21;6.85;;;4.50;;
50341;SDS011;76053;42.682;23.286;2024-03-25T03:42:22;6.18;;;4.47;;
50341;SDS011;76053;42.682;23.286;2024-03-25T03:45:24;6.10;;;3.83;;
50341;SDS011;76053;42.682;23.286;2024-03-25T03:48:25;7.65;;;3.97;;
50341;SDS011;76053;42.682;23.286;2024-03-25T03:51:25;5.40;;;3.17;;
50341;SDS011;76053;42.682;23.286;2024-03-25T03:54:26;5.78;;;3.95;;
50341;SDS011;76053;42.682;23.286;2024-03-25T03:57:26;5.15;;;3.97;;
50341;SDS011;76053;42.682;23.286;2024-03-25T04:00:26;6.35;;;3.90;;
50341;SDS011;76053;42.682;23.286;2024-03-25T04:03:27;6.00;;;3.35;;
50341;SDS011;76053;42.682;23.286;2024-03-25T04:06:27;4.85;;;3.45;;
50341;SDS011;76053;42.682;23.286;2024-03-25T04:09:27;5.25;;;3.30;;
50341;SDS011;76053;42.682;23.286;2024-03-25T04:12:28;5.45;;;3.45;;
50341;SDS011;76053;42.682;23.286;2024-03-25T04:15:28;4.90;;;3.05;;
50341;SDS011;76053;42.682;23.286;2024-03-25T04:18:30;6.18;;;3.67;;
50341;SDS011;76053;42.682;23.286;2024-03-25T04:21:30;4.18;;;3.20;;
50341;SDS011;76053;42.682;23.286;2024-03-25T04:24:31;5.80;;;2.85;;
50341;SDS011;76053;42.682;23.286;2024-03-25T04:27:31;5.97;;;3.42;;
50341;SDS011;76053;42.682;23.286;2024-03-25T04:30:34;4.35;;;2.83;;
50341;SDS011;76053;42.682;23.286;2024-03-25T04:33:35;4.97;;;3.28;;
50341;SDS011;76053;42.682;23.286;2024-03-25T04:36:35;4.25;;;2.33;;
50341;SDS011;76053;42.682;23.286;2024-03-25T04:39:35;4.30;;;3.22;;
50341;SDS011;76053;42.682;23.286;2024-03-25T04:42:36;3.85;;;2.67;;
50341;SDS011;76053;42.682;23.286;2024-03-25T04:45:36;5.07;;;3.40;;
50341;SDS011;76053;42.682;23.286;2024-03-25T04:48:37;16.50;;;6.38;;
50341;SDS011;76053;42.682;23.286;2024-03-25T04:51:37;140.30;;;42.92;;
50341;SDS011;76053;42.682;23.286;2024-03-25T04:54:38;100.15;;;35.50;;
50341;SDS011;76053;42.682;23.286;2024-03-25T04:57:38;94.70;;;30.42;;
50341;SDS011;76053;42.682;23.286;2024-03-25T05:00:38;77.65;;;25.63;;
50341;SDS011;76053;42.682;23.286;2024-03-25T05:03:39;72.13;;;23.67;;
50341;SDS011;76053;42.682;23.286;2024-03-25T05:06:40;66.70;;;24.52;;
50341;SDS011;76053;42.682;23.286;2024-03-25T05:09:40;81.60;;;24.23;;
50341;SDS011;76053;42.682;23.286;2024-03-25T05:12:41;66.47;;;22.73;;
50341;SDS011;76053;42.682;23.286;2024-03-25T05:15:48;69.75;;;22.52;;
50341;SDS011;76053;42.682;23.286;2024-03-25T05:18:50;68.15;;;23.42;;
50341;SDS011;76053;42.682;23.286;2024-03-25T05:21:50;70.40;;;21.15;;
50341;SDS011;76053;42.682;23.286;2024-03-25T05:24:50;57.15;;;21.50;;
50341;SDS011;76053;42.682;23.286;2024-03-25T05:27:51;56.30;;;21.23;;
50341;SDS011;76053;42.682;23.286;2024-03-25T05:30:51;47.78;;;18.27;;
50341;SDS011;76053;42.682;23.286;2024-03-25T05:33:51;63.08;;;20.55;;
50341;SDS011;76053;42.682;23.286;2024-03-25T05:36:52;54.95;;;18.85;;
50341;SDS011;76053;42.682;23.286;2024-03-25T05:39:52;55.92;;;21.95;;
50341;SDS011;76053;42.682;23.286;2024-03-25T05:42:53;49.20;;;18.77;;
50341;SDS011;76053;42.682;23.286;2024-03-25T05:45:53;55.22;;;19.75;;
50341;SDS011;76053;42.682;23.286;2024-03-25T05:48:54;46.22;;;17.48;;
50341;SDS011;76053;42.682;23.286;2024-03-25T05:51:54;46.65;;;17.98;;
50341;SDS011;76053;42.682;23.286;2024-03-25T05:54:54;46.35;;;17.45;;
50341;SDS011;76053;42.682;23.286;2024-03-25T05:57:55;47.53;;;16.48;;
50341;SDS011;76053;42.682;23.286;2024-03-25T06:00:55;39.28;;;16.00;;
50341;SDS011;76053;42.682;23.286;2024-03-25T06:03:56;41.72;;;16.73;;
50341;SDS011;76053;42.682;23.286;2024-03-25T06:06:56;35.67;;;14.27;;
50341;SDS011;76053;42.682;23.286;2024-03-25T06:09:56;37.35;;;15.32;;
50341;SDS011;76053;42.682;23.286;2024-03-25T06:12:57;41.28;;;15.82;;
50341;SDS011;76053;42.682;23.286;2024-03-25T06:15:57;32.38;;;14.25;;
50341;SDS011;76053;42.682;23.286;2024-03-25T06:18:57;35.58;;;14.85;;
50341;SDS011;76053;42.682;23.286;2024-03-25T06:21:58;38.67;;;16.45;;
50341;SDS011;76053;42.682;23.286;2024-03-25T06:24:58;34.28;;;14.27;;
50341;SDS011;76053;42.682;23.286;2024-03-25T06:27:58;29.45;;;13.13;;
50341;SDS011;76053;42.682;23.286;2024-03-25T06:30:59;31.83;;;13.40;;
50341;SDS011;76053;42.682;23.286;2024-03-25T06:33:59;28.20;;;14.07;;
50341;SDS011;76053;42.682;23.286;2024-03-25T06:36:59;30.95;;;13.23;;
50341;SDS011;76053;42.682;23.286;2024-03-25T06:40:00;26.60;;;13.18;;
50341;SDS011;76053;42.682;23.286;2024-03-25T06:43:00;26.95;;;12.20;;
50341;SDS011;76053;42.682;23.286;2024-03-25T06:46:00;27.73;;;12.07;;
50341;SDS011;76053;42.682;23.286;2024-03-25T06:49:01;23.83;;;11.77;;
50341;SDS011;76053;42.682;23.286;2024-03-25T06:52:01;24.95;;;10.82;;
50341;SDS011;76053;42.682;23.286;2024-03-25T06:55:02;29.35;;;12.38;;
50341;SDS011;76053;42.682;23.286;2024-03-25T06:58:02;24.90;;;10.98;;
50341;SDS011;76053;42.682;23.286;2024-03-25T07:01:04;23.98;;;10.93;;
50341;SDS011;76053;42.682;23.286;2024-03-25T07:04:05;23.30;;;10.85;;
50341;SDS011;76053;42.682;23.286;2024-03-25T07:07:06;22.15;;;12.27;;
50341;SDS011;76053;42.682;23.286;2024-03-25T07:10:06;26.17;;;11.13;;
50341;SDS011;76053;42.682;23.286;2024-03-25T07:13:07;21.50;;;11.02;;
50341;SDS011;76053;42.682;23.286;2024-03-25T07:16:07;19.85;;;9.40;;
50341;SDS011;76053;42.682;23.286;2024-03-25T07:19:08;18.35;;;10.20;;
50341;SDS011;76053;42.682;23.286;2024-03-25T07:22:08;18.42;;;10.63;;
50341;SDS011;76053;42.682;23.286;2024-03-25T07:25:09;17.90;;;10.23;;
50341;SDS011;76053;42.682;23.286;2024-03-25T07:28:09;20.58;;;10.00;;
50341;SDS011;76053;42.682;23.286;2024-03-25T07:31:09;14.65;;;9.10;;
50341;SDS011;76053;42.682;23.286;2024-03-25T07:34:10;17.67;;;9.65;;
50341;SDS011;76053;42.682;23.286;2024-03-25T07:37:10;16.98;;;7.78;;
50341;SDS011;76053;42.682;23.286;2024-03-25T07:40:11;20.75;;;10.23;;
50341;SDS011;76053;42.682;23.286;2024-03-25T07:43:11;17.08;;;9.80;;
50341;SDS011;76053;42.682;23.286;2024-03-25T07:46:11;16.20;;;8.40;;
50341;SDS011;76053;42.682;23.286;2024-03-25T07:49:12;18.27;;;8.75;;
50341;SDS011;76053;42.682;23.286;2024-03-25T07:52:12;18.60;;;11.15;;
50341;SDS011;76053;42.682;23.286;2024-03-25T07:55:13;16.85;;;8.73;;
50341;SDS011;76053;42.682;23.286;2024-03-25T07:58:13;14.85;;;9.70;;
50341;SDS011;76053;42.682;23.286;2024-03-25T08:01:13;15.65;;;8.77;;
50341;SDS011;76053;42.682;23.286;2024-03-25T08:04:14;13.52;;;8.23;;
50341;SDS011;76053;42.682;23.286;2024-03-25T08:07:14;15.63;;;8.02;;
50341;SDS011;76053;42.682;23.286;2024-03-25T08:10:15;12.43;;;7.63;;
50341;SDS011;76053;42.682;23.286;2024-03-25T08:13:15;11.93;;;8.02;;
50341;SDS011;76053;42.682;23.286;2024-03-25T08:16:15;11.43;;;7.68;;
50341;SDS011;76053;42.682;23.286;2024-03-25T08:19:16;12.85;;;8.48;;
50341;SDS011;76053;42.682;23.286;2024-03-25T08:22:16;16.38;;;7.45;;
50341;SDS011;76053;42.682;23.286;2024-03-25T08:25:17;15.75;;;7.88;;
50341;SDS011;76053;42.682;23.286;2024-03-25T08:28:17;10.65;;;7.00;;
50341;SDS011;76053;42.682;23.286;2024-03-25T08:31:17;21.17;;;19.17;;
50341;SDS011;76053;42.682;23.286;2024-03-25T08:34:18;13.65;;;11.80;;
50341;SDS011;76053;42.682;23.286;2024-03-25T08:37:18;533.83;;;476.83;;
50341;SDS011;76053;42.682;23.286;2024-03-25T08:40:19;157.75;;;125.63;;
50341;SDS011;76053;42.682;23.286;2024-03-25T08:43:19;41.53;;;31.35;;
50341;SDS011;76053;42.682;23.286;2024-03-25T08:46:19;19.20;;;16.00;;
50341;SDS011;76053;42.682;23.286;2024-03-25T08:49:20;320.75;;;277.45;;
50341;SDS011;76053;42.682;23.286;2024-03-25T08:52:20;522.03;;;457.50;;
50341;SDS011;76053;42.682;23.286;2024-03-25T08:55:21;434.83;;;380.23;;
50341;SDS011;76053;42.682;23.286;2024-03-25T08:58:21;1225.53;;;865.13;;
50341;SDS011;76053;42.682;23.286;2024-03-25T09:01:21;852.17;;;671.40;;
50341;SDS011;76053;42.682;23.286;2024-03-25T09:04:22;686.72;;;567.85;;
50341;SDS011;76053;42.682;23.286;2024-03-25T09:07:22;619.10;;;511.17;;
50341;SDS011;76053;42.682;23.286;2024-03-25T09:10:23;820.40;;;659.22;;
50341;SDS011;76053;42.682;23.286;2024-03-25T09:13:23;512.05;;;409.38;;
50341;SDS011;76053;42.682;23.286;2024-03-25T09:16:23;791.65;;;631.55;;
50341;SDS011;76053;42.682;23.286;2024-03-25T09:19:24;589.85;;;462.27;;
50341;SDS011;76053;42.682;23.286;2024-03-25T09:22:24;753.20;;;607.15;;
50341;SDS011;76053;42.682;23.286;2024-03-25T09:25:25;587.15;;;465.38;;
50341;SDS011;76053;42.682;23.286;2024-03-25T09:28:25;514.95;;;400.58;;
50341;SDS011;76053;42.682;23.286;2024-03-25T09:31:26;407.75;;;285.58;;
50341;SDS011;76053;42.682;23.286;2024-03-25T09:34:26;1214.63;;;850.47;;
50341;SDS011;76053;42.682;23.286;2024-03-25T09:37:27;917.83;;;681.10;;
50341;SDS011;76053;42.682;23.286;2024-03-25T09:40:27;595.95;;;449.60;;
50341;SDS011;76053;42.682;23.286;2024-03-25T09:46:42;959.92;;;707.35;;
50341;SDS011;76053;42.682;23.286;2024-03-25T09:49:43;1205.85;;;816.45;;
50341;SDS011;76053;42.682;23.286;2024-03-25T09:52:46;1511.25;;;899.63;;
50341;SDS011;76053;42.682;23.286;2024-03-25T09:55:46;1131.55;;;758.80;;
50341;SDS011;76053;42.682;23.286;2024-03-25T09:58:47;1007.72;;;690.53;;
50341;SDS011;76053;42.682;23.286;2024-03-25T10:01:48;902.40;;;638.95;;
50341;SDS011;76053;42.682;23.286;2024-03-25T10:04:48;831.95;;;584.35;;
50341;SDS011;76053;42.682;23.286;2024-03-25T10:07:49;1392.13;;;869.67;;
50341;SDS011;76053;42.682;23.286;2024-03-25T10:10:49;1059.30;;;728.28;;
50341;SDS011;76053;42.682;23.286;2024-03-25T10:13:50;880.05;;;629.25;;
50341;SDS011;76053;42.682;23.286;2024-03-25T10:16:50;1150.18;;;771.42;;
50341;SDS011;76053;42.682;23.286;2024-03-25T10:19:53;968.13;;;681.25;;
50341;SDS011;76053;42.682;23.286;2024-03-25T10:22:54;693.33;;;490.88;;
50341;SDS011;76053;42.682;23.286;2024-03-25T10:25:54;671.30;;;484.40;;
50341;SDS011;76053;42.682;23.286;2024-03-25T10:28:59;682.85;;;502.55;;
50341;SDS011;76053;42.682;23.286;2024-03-25T10:32:00;731.28;;;539.45;;
50341;SDS011;76053;42.682;23.286;2024-03-25T10:35:01;793.40;;;591.45;;
50341;SDS011;76053;42.682;23.286;2024-03-25T10:38:05;626.33;;;463.38;;
50341;SDS011;76053;42.682;23.286;2024-03-25T10:41:07;930.35;;;652.60;;
50341;SDS011;76053;42.682;23.286;2024-03-25T10:44:07;705.53;;;495.58;;
50341;SDS011;76053;42.682;23.286;2024-03-25T10:47:09;525.50;;;365.23;;
50341;SDS011;76053;42.682;23.286;2024-03-25T10:50:14;506.92;;;342.10;;
50341;SDS011;76053;42.682;23.286;2024-03-25T10:53:18;393.70;;;248.20;;
50341;SDS011;76053;42.682;23.286;2024-03-25T10:56:20;495.48;;;366.88;;
50341;SDS011;76053;42.682;23.286;2024-03-25T10:59:23;390.80;;;262.80;;
50341;SDS011;76053;42.682;23.286;2024-03-25T11:02:26;282.38;;;184.93;;
50341;SDS011;76053;42.682;23.286;2024-03-25T11:05:27;208.80;;;129.55;;
50341;SDS011;76053;42.682;23.286;2024-03-25T11:08:31;131.15;;;75.82;;
50341;SDS011;76053;42.682;23.286;2024-03-25T11:11:35;90.63;;;51.13;;
50341;SDS011;76053;42.682;23.286;2024-03-25T11:14:35;47.13;;;27.38;;
50341;SDS011;76053;42.682;23.286;2024-03-25T11:17:36;26.65;;;19.98;;
50341;SDS011;76053;42.682;23.286;2024-03-25T11:20:37;20.35;;;16.98;;
50341;SDS011;76053;42.682;23.286;2024-03-25T11:23:38;16.08;;;13.95;;
50341;SDS011;76053;42.682;23.286;2024-03-25T11:26:41;14.98;;;13.07;;
50341;SDS011;76053;42.682;23.286;2024-03-25T11:29:42;340.67;;;282.65;;
50341;SDS011;76053;42.682;23.286;2024-03-25T11:32:46;1095.18;;;767.80;;
50341;SDS011;76053;42.682;23.286;2024-03-25T11:35:51;1414.65;;;887.67;;
50341;SDS011;76053;42.682;23.286;2024-03-25T11:38:58;838.33;;;633.60;;
50341;SDS011;76053;42.682;23.286;2024-03-25T11:41:59;680.95;;;514.50;;
50341;SDS011;76053;42.682;23.286;2024-03-25T11:45:00;579.75;;;438.83;;
50341;SDS011;76053;42.682;23.286;2024-03-25T11:48:01;500.40;;;365.42;;
50341;SDS011;76053;42.682;23.286;2024-03-25T11:51:03;1365.85;;;859.50;;
50341;SDS011;76053;42.682;23.286;2024-03-25T11:54:04;1015.92;;;726.35;;
50341;SDS011;76053;42.682;23.286;2024-03-25T11:57:04;732.15;;;559.95;;
50341;SDS011;76053;42.682;23.286;2024-03-25T12:00:05;595.60;;;450.95;;
50341;SDS011;76053;42.682;23.286;2024-03-25T12:03:07;1029.35;;;762.72;;
50341;SDS011;76053;42.682;23.286;2024-03-25T12:06:08;570.90;;;446.67;;
50341;SDS011;76053;42.682;23.286;2024-03-25T12:09:08;486.88;;;359.75;;
50341;SDS011;76053;42.682;23.286;2024-03-25T12:12:10;1651.65;;;955.88;;
50341;SDS011;76053;42.682;23.286;2024-03-25T12:15:10;1829.35;;;977.97;;
50341;SDS011;76053;42.682;23.286;2024-03-25T12:18:11;1241.50;;;824.50;;
50341;SDS011;76053;42.682;23.286;2024-03-25T12:21:12;1344.93;;;847.30;;
50341;SDS011;76053;42.682;23.286;2024-03-25T12:24:12;1129.93;;;748.72;;
50341;SDS011;76053;42.682;23.286;2024-03-25T12:27:12;920.28;;;651.53;;
50341;SDS011;76053;42.682;23.286;2024-03-25T12:30:13;838.97;;;595.05;;
50341;SDS011;76053;42.682;23.286;2024-03-25T12:33:13;710.05;;;504.08;;
50341;SDS011;76053;42.682;23.286;2024-03-25T12:36:14;746.50;;;536.05;;
50341;SDS011;76053;42.682;23.286;2024-03-25T12:39:15;1029.72;;;709.15;;
50341;SDS011;76053;42.682;23.286;2024-03-25T12:42:16;816.83;;;587.20;;
50341;SDS011;76053;42.682;23.286;2024-03-25T12:45:17;645.00;;;462.80;;
50341;SDS011;76053;42.682;23.286;2024-03-25T12:48:18;588.70;;;417.25;;
50341;SDS011;76053;42.682;23.286;2024-03-25T12:51:18;517.97;;;361.70;;
50341;SDS011;76053;42.682;23.286;2024-03-25T12:54:19;450.83;;;294.33;;
50341;SDS011;76053;42.682;23.286;2024-03-25T12:57:19;645.78;;;516.00;;
50341;SDS011;76053;42.682;23.286;2024-03-25T13:00:19;997.90;;;755.70;;
50341;SDS011;76053;42.682;23.286;2024-03-25T13:03:20;682.55;;;535.00;;
50341;SDS011;76053;42.682;23.286;2024-03-25T13:06:20;481.23;;;364.05;;
50341;SDS011;76053;42.682;23.286;2024-03-25T13:09:21;339.35;;;236.73;;
50341;SDS011;76053;42.682;23.286;2024-03-25T13:12:21;260.70;;;169.55;;
50341;SDS011;76053;42.682;23.286;2024-03-25T13:15:22;1050.90;;;805.42;;
50341;SDS011;76053;42.682;23.286;2024-03-25T13:18:22;346.20;;;292.88;;
50341;SDS011;76053;42.682;23.286;2024-03-25T13:21:23;419.15;;;344.40;;
50341;SDS011;76053;42.682;23.286;2024-03-25T13:24:24;169.57;;;125.90;;
50341;SDS011;76053;42.682;23.286;2024-03-25T13:27:25;303.15;;;243.40;;
50341;SDS011;76053;42.682;23.286;2024-03-25T13:30:26;630.38;;;539.35;;
50341;SDS011;76053;42.682;23.286;2024-03-25T13:33:26;421.80;;;340.48;;
50341;SDS011;76053;42.682;23.286;2024-03-25T13:36:27;225.88;;;169.98;;
50341;SDS011;76053;42.682;23.286;2024-03-25T13:39:27;168.73;;;119.15;;
50341;SDS011;76053;42.682;23.286;2024-03-25T13:42:27;118.18;;;82.35;;
50341;SDS011;76053;42.682;23.286;2024-03-25T13:45:28;1999.90;;;999.90;;
50341;SDS011;76053;42.682;23.286;2024-03-25T13:48:29;1489.05;;;924.42;;
50341;SDS011;76053;42.682;23.286;2024-03-25T13:51:29;915.78;;;699.05;;
50341;SDS011;76053;42.682;23.286;2024-03-25T13:54:30;781.78;;;618.83;;
50341;SDS011;76053;42.682;23.286;2024-03-25T13:57:30;1514.10;;;937.75;;
50341;SDS011;76053;42.682;23.286;2024-03-25T14:00:31;1765.60;;;976.40;;
50341;SDS011;76053;42.682;23.286;2024-03-25T14:03:31;1451.28;;;886.42;;
50341;SDS011;76053;42.682;23.286;2024-03-25T14:06:32;1193.80;;;792.80;;
50341;SDS011;76053;42.682;23.286;2024-03-25T14:09:33;1067.80;;;722.75;;
50341;SDS011;76053;42.682;23.286;2024-03-25T14:12:33;946.75;;;668.05;;
50341;SDS011;76053;42.682;23.286;2024-03-25T14:15:33;1303.00;;;842.53;;
50341;SDS011;76053;42.682;23.286;2024-03-25T14:18:34;1894.22;;;998.58;;
50341;SDS011;76053;42.682;23.286;2024-03-25T14:21:34;1999.90;;;999.90;;
50341;SDS011;76053;42.682;23.286;2024-03-25T14:24:35;1503.45;;;888.03;;
50341;SDS011;76053;42.682;23.286;2024-03-25T14:27:35;1269.53;;;802.75;;
50341;SDS011;76053;42.682;23.286;2024-03-25T14:30:35;1186.05;;;766.92;;
50341;SDS011;76053;42.682;23.286;2024-03-25T14:33:36;1135.28;;;739.15;;
50341;SDS011;76053;42.682;23.286;2024-03-25T14:36:36;1001.85;;;670.90;;
50341;SDS011;76053;42.682;23.286;2024-03-25T14:39:37;1641.65;;;947.13;;
50341;SDS011;76053;42.682;23.286;2024-03-25T14:42:37;1999.90;;;999.90;;
50341;SDS011;76053;42.682;23.286;2024-03-25T14:45:38;1496.32;;;879.08;;
50341;SDS011;76053;42.682;23.286;2024-03-25T14:48:38;1586.25;;;911.40;;
50341;SDS011;76053;42.682;23.286;2024-03-25T14:51:39;1588.53;;;906.50;;
50341;SDS011;76053;42.682;23.286;2024-03-25T14:54:39;1655.70;;;940.42;;
50341;SDS011;76053;42.682;23.286;2024-03-25T14:57:40;1460.35;;;861.85;;
50341;SDS011;76053;42.682;23.286;2024-03-25T15:00:40;1733.25;;;935.47;;
50341;SDS011;76053;42.682;23.286;2024-03-25T15:03:41;1357.88;;;819.45;;
50341;SDS011;76053;42.682;23.286;2024-03-25T15:06:41;1204.90;;;756.10;;
50341;SDS011;76053;42.682;23.286;2024-03-25T15:09:41;1118.13;;;710.65;;
50341;SDS011;76053;42.682;23.286;2024-03-25T15:12:42;1372.25;;;837.90;;
50341;SDS011;76053;42.682;23.286;2024-03-25T15:15:42;1135.70;;;733.30;;
50341;SDS011;76053;42.682;23.286;2024-03-25T15:18:44;954.15;;;643.50;;
50341;SDS011;76053;42.682;23.286;2024-03-25T15:21:44;1251.95;;;801.72;;
50341;SDS011;76053;42.682;23.286;2024-03-25T15:24:46;911.80;;;637.03;;
50341;SDS011;76053;42.682;23.286;2024-03-25T15:27:49;1814.95;;;968.10;;
50341;SDS011;76053;42.682;23.286;2024-03-25T15:30:50;1201.55;;;770.33;;
50341;SDS011;76053;42.682;23.286;2024-03-25T15:33:51;935.95;;;646.00;;
50341;SDS011;76053;42.682;23.286;2024-03-25T15:36:51;830.45;;;582.75;;
50341;SDS011;76053;42.682;23.286;2024-03-25T15:39:51;722.40;;;514.30;;
50341;SDS011;76053;42.682;23.286;2024-03-25T15:42:52;1278.65;;;849.40;;
50341;SDS011;76053;42.682;23.286;2024-03-25T15:48:56;1999.90;;;999.90;;
50341;SDS011;76053;42.682;23.286;2024-03-25T15:51:56;1539.45;;;903.72;;
50341;SDS011;76053;42.682;23.286;2024-03-25T15:54:57;1266.75;;;812.85;;
50341;SDS011;76053;42.682;23.286;2024-03-25T15:58:00;1085.07;;;732.42;;
50341;SDS011;76053;42.682;23.286;2024-03-25T16:01:01;991.70;;;675.45;;
50341;SDS011;76053;42.682;23.286;2024-03-25T16:04:01;892.60;;;628.08;;
50341;SDS011;76053;42.682;23.286;2024-03-25T16:07:02;788.53;;;565.65;;
50341;SDS011;76053;42.682;23.286;2024-03-25T16:10:02;1114.45;;;765.58;;
50341;SDS011;76053;42.682;23.286;2024-03-25T16:13:03;1077.97;;;751.03;;
50341;SDS011;76053;42.682;23.286;2024-03-25T16:16:03;769.58;;;562.08;;
50341;SDS011;76053;42.682;23.286;2024-03-25T16:19:04;695.85;;;525.55;;
50341;SDS011;76053;42.682;23.286;2024-03-25T16:22:05;1999.90;;;999.90;;
50341;SDS011;76053;42.682;23.286;2024-03-25T16:25:05;1453.47;;;877.08;;
50341;SDS011;76053;42.682;23.286;2024-03-25T16:28:06;1221.57;;;788.22;;
50341;SDS011;76053;42.682;23.286;2024-03-25T16:31:07;1561.82;;;901.33;;
50341;SDS011;76053;42.682;23.286;2024-03-25T16:34:07;1184.25;;;767.67;;
50341;SDS011;76053;42.682;23.286;2024-03-25T16:37:07;1006.70;;;687.15;;
50341;SDS011;76053;42.682;23.286;2024-03-25T16:40:08;879.00;;;626.67;;
50341;SDS011;76053;42.682;23.286;2024-03-25T16:43:09;769.38;;;552.85;;
50341;SDS011;76053;42.682;23.286;2024-03-25T16:46:09;650.83;;;477.73;;
50341;SDS011;76053;42.682;23.286;2024-03-25T16:49:09;552.63;;;400.60;;
50341;SDS011;76053;42.682;23.286;2024-03-25T16:52:10;466.58;;;328.38;;
50341;SDS011;76053;42.682;23.286;2024-03-25T16:55:10;376.10;;;251.20;;
50341;SDS011;76053;42.682;23.286;2024-03-25T16:58:11;284.05;;;184.90;;
50341;SDS011;76053;42.682;23.286;2024-03-25T17:01:11;179.98;;;115.90;;
50341;SDS011;76053;42.682;23.286;2024-03-25T17:04:12;119.38;;;76.57;;
50341;SDS011;76053;42.682;23.286;2024-03-25T17:07:12;897.28;;;716.58;;
50341;SDS011;76053;42.682;23.286;2024-03-25T17:10:12;373.55;;;309.77;;
50341;SDS011;76053;42.682;23.286;2024-03-25T17:13:13;925.92;;;704.90;;
50341;SDS011;76053;42.682;23.286;2024-03-25T17:16:13;1062.57;;;765.67;;